createdAt,value
2022-07-28T00:00:01.038Z,101166.88
2022-07-28T00:02:28.038Z,101180.50
2022-07-28T00:04:54.675Z,101172.06
2022-07-28T00:07:21.173Z,101180.63
2022-07-28T00:09:47.661Z,101173.69
2022-07-28T00:12:14.451Z,101179.69
2022-07-28T00:14:41.263Z,101181.00
2022-07-28T00:17:07.873Z,101171.78
2022-07-28T00:19:34.557Z,101173.97
2022-07-28T00:22:02.529Z,101172.13
2022-07-28T00:24:29.330Z,101170.13
2022-07-28T00:26:55.781Z,101164.31
2022-07-28T00:29:22.241Z,101174.06
2022-07-28T00:31:48.764Z,101164.56
2022-07-28T00:34:15.577Z,101162.38
2022-07-28T00:36:42.283Z,101161.91
2022-07-28T00:39:08.843Z,101161.34
2022-07-28T00:41:36.499Z,101164.91
2022-07-28T00:44:06.344Z,101172.59
2022-07-28T00:46:33.206Z,101175.59
2022-07-28T00:48:59.845Z,101169.59
2022-07-28T00:51:27.456Z,101175.34
2022-07-28T00:53:54.955Z,101170.50
2022-07-28T00:56:22.103Z,101173.28
2022-07-28T00:58:48.991Z,101168.63
2022-07-28T01:01:19.643Z,101172.91
2022-07-28T01:03:56.040Z,101172.44
2022-07-28T01:06:31.686Z,101169.19
2022-07-28T01:09:11.411Z,101175.34
2022-07-28T01:11:48.607Z,101179.81
2022-07-28T01:14:23.975Z,101184.56
2022-07-28T01:17:01.961Z,101180.19
2022-07-28T01:19:48.974Z,101179.63
2022-07-28T01:22:22.202Z,101179.47
2022-07-28T01:25:07.268Z,101177.78
2022-07-28T01:28:06.028Z,101174.47
2022-07-28T01:30:45.966Z,101178.09
2022-07-28T01:33:19.125Z,101177.81
2022-07-28T01:35:51.423Z,101174.69
2022-07-28T01:38:19.984Z,101170.53
2022-07-28T01:40:50.343Z,101168.56
2022-07-28T01:43:21.605Z,101175.50
2022-07-28T01:45:48.086Z,101179.03
2022-07-28T01:48:17.291Z,101176.41
2022-07-28T01:50:48.851Z,101173.75
2022-07-28T01:53:16.808Z,101180.88
2022-07-28T01:55:44.713Z,101168.19
2022-07-28T01:58:13.851Z,101172.63
2022-07-28T02:00:42.793Z,101165.13
2022-07-28T02:03:11.734Z,101171.88
2022-07-28T02:05:41.367Z,101165.25
2022-07-28T02:08:08.986Z,101157.75
2022-07-28T02:10:37.566Z,101157.63
2022-07-28T02:13:04.374Z,101158.91
2022-07-28T02:15:32.480Z,101167.25
2022-07-28T02:18:00.401Z,101161.59
2022-07-28T02:20:28.285Z,101164.69
2022-07-28T02:22:56.273Z,101161.50
2022-07-28T02:25:23.032Z,101163.88
2022-07-28T02:27:58.220Z,101170.03
2022-07-28T02:30:31.971Z,101169.63
2022-07-28T02:33:05.666Z,101165.44
2022-07-28T02:35:53.328Z,101167.50
2022-07-28T02:38:35.191Z,101169.22
2022-07-28T02:41:13.099Z,101169.41
2022-07-28T02:43:49.333Z,101171.22
2022-07-28T02:46:21.981Z,101168.25
2022-07-28T02:48:52.913Z,101168.69
2022-07-28T02:51:23.496Z,101178.97
2022-07-28T02:53:51.030Z,101174.56
2022-07-28T02:56:18.235Z,101179.66
2022-07-28T02:58:45.784Z,101183.22
2022-07-28T03:01:12.754Z,101184.66
2022-07-28T03:03:43.972Z,101182.66
2022-07-28T03:06:10.933Z,101177.28
2022-07-28T03:08:37.473Z,101177.22
2022-07-28T03:11:12.119Z,101182.00
2022-07-28T03:13:39.891Z,101186.34
2022-07-28T03:16:07.379Z,101185.50
2022-07-28T03:18:33.890Z,101193.53
2022-07-28T03:21:00.742Z,101193.50
2022-07-28T03:23:41.782Z,101197.16
2022-07-28T03:26:15.470Z,101199.13
2022-07-28T03:28:43.782Z,101199.03
2022-07-28T03:31:12.202Z,101197.59
2022-07-28T03:33:39.076Z,101196.53
2022-07-28T03:36:09.228Z,101194.41
2022-07-28T03:38:43.728Z,101209.56
2022-07-28T03:41:11.369Z,101196.94
2022-07-28T03:43:39.191Z,101206.34
2022-07-28T03:46:12.824Z,101214.84
2022-07-28T03:48:39.981Z,101206.34
2022-07-28T03:51:06.508Z,101204.53
2022-07-28T03:53:33.207Z,101199.06
2022-07-28T03:55:59.686Z,101198.34
2022-07-28T03:58:28.907Z,101199.09
2022-07-28T04:00:56.108Z,101201.88
2022-07-28T04:03:36.487Z,101200.22
2022-07-28T04:06:09.152Z,101197.78
2022-07-28T04:08:35.700Z,101200.38
2022-07-28T04:11:02.209Z,101194.09
2022-07-28T04:13:28.923Z,101201.00
2022-07-28T04:15:55.376Z,101194.28
2022-07-28T04:18:22.035Z,101193.34
2022-07-28T04:20:48.698Z,101192.44
2022-07-28T04:23:15.185Z,101188.34
2022-07-28T04:25:41.781Z,101206.75
2022-07-28T04:28:08.333Z,101202.69
2022-07-28T04:30:34.986Z,101198.41
2022-07-28T04:33:10.197Z,101197.34
2022-07-28T04:35:37.877Z,101196.13
2022-07-28T04:40:39.766Z,101200.50
2022-07-28T04:43:06.336Z,101204.47
2022-07-28T04:45:32.995Z,101197.31
2022-07-28T04:47:59.577Z,101205.69
2022-07-28T04:50:26.636Z,101201.06
2022-07-28T04:52:54.311Z,101211.00
2022-07-28T04:55:20.855Z,101206.53
2022-07-28T04:57:48.111Z,101209.34
2022-07-28T05:00:15.355Z,101205.13
2022-07-28T05:02:43.223Z,101204.50
2022-07-28T05:05:10.938Z,101210.78
2022-07-28T05:07:41.115Z,101208.56
2022-07-28T05:10:09.528Z,101212.38
2022-07-28T05:12:36.423Z,101214.13
2022-07-28T05:15:03.799Z,101205.25
2022-07-28T05:17:30.305Z,101207.25
2022-07-28T05:19:56.857Z,101211.53
2022-07-28T05:22:23.315Z,101212.59
2022-07-28T05:24:49.823Z,101215.50
2022-07-28T05:27:17.535Z,101209.00
2022-07-28T05:29:47.040Z,101210.56
2022-07-28T05:32:16.524Z,101208.56
2022-07-28T05:34:45.332Z,101223.97
2022-07-28T05:37:12.078Z,101210.47
2022-07-28T05:39:38.661Z,101209.63
2022-07-28T05:42:05.303Z,101210.63
2022-07-28T05:44:37.612Z,101216.22
2022-07-28T05:47:04.722Z,101215.06
2022-07-28T05:49:31.534Z,101212.72
2022-07-28T05:51:58.047Z,101218.94
2022-07-28T05:54:24.638Z,101220.03
2022-07-28T05:56:52.680Z,101213.13
2022-07-28T05:59:19.163Z,101225.75
2022-07-28T06:01:46.064Z,101222.41
2022-07-28T06:04:28.970Z,101232.69
2022-07-28T06:06:55.991Z,101220.69
2022-07-28T06:09:22.484Z,101226.75
2022-07-28T06:11:50.501Z,101233.72
2022-07-28T06:14:18.021Z,101231.59
2022-07-28T06:16:45.062Z,101240.63
2022-07-28T06:19:11.658Z,101244.06
2022-07-28T06:21:38.224Z,101228.00
2022-07-28T06:24:05.186Z,101241.19
2022-07-28T06:26:31.648Z,101240.50
2022-07-28T06:28:58.692Z,101236.31
2022-07-28T06:31:25.199Z,101231.81
2022-07-28T06:33:51.786Z,101231.13
2022-07-28T06:36:18.306Z,101229.63
2022-07-28T06:38:44.800Z,101231.91
2022-07-28T06:41:11.270Z,101238.25
2022-07-28T06:43:39.325Z,101233.81
2022-07-28T06:46:06.257Z,101235.94
2022-07-28T06:48:32.979Z,101231.75
2022-07-28T06:50:59.703Z,101230.94
2022-07-28T06:53:28.101Z,101229.63
2022-07-28T06:56:00.668Z,101234.22
2022-07-28T06:58:27.123Z,101235.63
2022-07-28T07:00:53.744Z,101232.34
2022-07-28T07:03:20.287Z,101228.94
2022-07-28T07:05:49.058Z,101230.94
2022-07-28T07:08:20.789Z,101241.38
2022-07-28T07:10:47.324Z,101236.06
2022-07-28T07:13:14.083Z,101231.44
2022-07-28T07:15:40.829Z,101219.78
2022-07-28T07:18:07.394Z,101215.41
2022-07-28T07:20:33.964Z,101216.88
2022-07-28T07:23:00.488Z,101208.78
2022-07-28T07:25:27.151Z,101210.06
2022-07-28T07:27:53.642Z,101209.69
2022-07-28T07:30:20.421Z,101208.75
2022-07-28T07:32:46.885Z,101203.81
2022-07-28T07:35:13.456Z,101196.44
2022-07-28T07:37:40.535Z,101202.28
2022-07-28T07:40:07.786Z,101205.59
2022-07-28T07:42:34.713Z,101205.06
2022-07-28T07:45:01.555Z,101205.47
2022-07-28T07:47:28.530Z,101198.28
2022-07-28T07:49:55.118Z,101206.34
2022-07-28T07:52:21.628Z,101192.81
2022-07-28T07:54:48.260Z,101200.06
2022-07-28T07:57:14.849Z,101198.09
2022-07-28T07:59:41.669Z,101198.72
2022-07-28T08:02:08.786Z,101195.69
2022-07-28T08:04:37.124Z,101201.63
2022-07-28T08:07:04.338Z,101198.97
2022-07-28T08:09:32.404Z,101189.13
2022-07-28T08:11:58.900Z,101204.16
2022-07-28T08:14:25.457Z,101198.72
2022-07-28T08:16:52.390Z,101189.38
2022-07-28T08:19:21.597Z,101189.03
2022-07-28T08:21:48.318Z,101185.53
2022-07-28T08:24:27.600Z,101183.38
2022-07-28T08:26:59.783Z,101190.63
2022-07-28T08:29:26.293Z,101191.19
2022-07-28T08:31:52.870Z,101194.91
2022-07-28T08:34:31.276Z,101184.50
2022-07-28T08:37:01.339Z,101183.31
2022-07-28T08:39:28.070Z,101191.06
2022-07-28T08:42:07.255Z,101193.94
2022-07-28T08:44:45.806Z,101186.19
2022-07-28T08:47:12.828Z,101171.06
2022-07-28T08:49:45.102Z,101177.84
2022-07-28T08:52:13.687Z,101170.31
2022-07-28T08:54:45.944Z,101173.66
2022-07-28T08:57:20.247Z,101167.94
2022-07-28T08:59:49.058Z,101166.16
2022-07-28T09:02:16.477Z,101158.50
2022-07-28T09:04:46.154Z,101168.31
2022-07-28T09:07:13.589Z,101160.81
2022-07-28T09:09:40.325Z,101175.88
2022-07-28T09:12:07.275Z,101174.97
2022-07-28T09:14:34.373Z,101172.47
2022-07-28T09:17:02.155Z,101170.53
2022-07-28T09:19:34.333Z,101165.72
2022-07-28T09:22:03.421Z,101170.00
2022-07-28T09:24:32.986Z,101166.88
2022-07-28T09:27:01.557Z,101164.63
2022-07-28T09:29:28.042Z,101177.31
2022-07-28T09:31:57.180Z,101170.34
2022-07-28T09:34:24.181Z,101170.09
2022-07-28T09:36:50.791Z,101165.41
2022-07-28T09:39:30.175Z,101166.66
2022-07-28T09:41:56.644Z,101161.38
2022-07-28T09:44:24.641Z,101164.97
2022-07-28T09:46:51.847Z,101162.78
2022-07-28T09:49:19.012Z,101160.31
2022-07-28T09:52:03.508Z,101166.25
2022-07-28T09:54:30.083Z,101149.75
2022-07-28T09:56:56.656Z,101147.69
2022-07-28T09:59:24.021Z,101149.63
2022-07-28T10:01:59.181Z,101150.53
2022-07-28T10:04:36.501Z,101148.03
2022-07-28T10:07:02.950Z,101143.28
2022-07-28T10:09:29.446Z,101151.53
2022-07-28T10:12:21.300Z,101153.88
2022-07-28T10:14:51.641Z,101151.78
2022-07-28T10:17:31.269Z,101144.38
2022-07-28T10:19:59.783Z,101133.16
2022-07-28T10:22:33.557Z,101131.25
2022-07-28T10:25:08.040Z,101136.19
2022-07-28T10:27:35.103Z,101122.78
2022-07-28T10:30:04.245Z,101129.41
2022-07-28T10:32:38.134Z,101116.22
2022-07-28T10:35:17.637Z,101112.16
2022-07-28T10:37:59.383Z,101113.97
2022-07-28T10:40:31.716Z,101119.09
2022-07-28T10:43:00.206Z,101117.84
2022-07-28T10:45:47.977Z,101112.47
2022-07-28T10:48:15.331Z,101113.84
2022-07-28T10:50:42.429Z,101106.19
2022-07-28T10:53:11.868Z,101115.38
2022-07-28T10:56:02.483Z,101109.34
2022-07-28T10:59:01.424Z,101109.41
2022-07-28T11:01:54.135Z,101104.41
2022-07-28T11:04:46.840Z,101100.22
2022-07-28T11:07:18.343Z,101096.97
2022-07-28T11:09:47.438Z,101097.31
2022-07-28T11:12:17.321Z,101092.03
2022-07-28T11:14:44.682Z,101088.09
2022-07-28T11:17:11.422Z,101090.06
2022-07-28T11:19:42.359Z,101073.44
2022-07-28T11:22:29.090Z,101080.72
2022-07-28T11:24:56.851Z,101082.81
2022-07-28T11:27:59.710Z,101082.56
2022-07-28T11:30:26.404Z,101077.81
2022-07-28T11:32:55.667Z,101069.69
2022-07-28T11:35:26.543Z,101069.06
2022-07-28T11:38:02.155Z,101059.38
2022-07-28T11:40:32.749Z,101065.25
2022-07-28T11:43:36.374Z,101055.16
2022-07-28T11:46:10.404Z,101061.06
2022-07-28T11:48:40.691Z,101069.50
2022-07-28T11:51:07.238Z,101067.41
2022-07-28T11:53:51.087Z,101069.97
2022-07-28T11:56:29.057Z,101056.16
2022-07-28T11:59:02.945Z,101060.78
2022-07-28T12:01:31.895Z,101044.94
2022-07-28T12:03:59.975Z,101047.53
2022-07-28T12:06:38.753Z,101043.91
2022-07-28T12:09:08.078Z,101030.97
2022-07-28T12:11:36.284Z,101034.41
2022-07-28T12:14:14.574Z,101037.75
2022-07-28T12:16:43.412Z,101035.78
2022-07-28T12:19:11.489Z,101032.41
2022-07-28T12:21:48.085Z,101035.69
2022-07-28T12:24:18.730Z,101035.16
2022-07-28T12:26:49.241Z,101029.34
2022-07-28T12:29:17.054Z,101025.47
2022-07-28T12:31:54.329Z,101034.00
2022-07-28T12:34:21.932Z,101024.19
2022-07-28T12:36:58.519Z,101026.41
2022-07-28T12:39:25.947Z,101028.84
2022-07-28T12:42:04.330Z,101027.13
2022-07-28T12:44:40.807Z,101009.91
2022-07-28T12:47:09.570Z,101004.13
2022-07-28T12:49:37.326Z,101014.06
2022-07-28T12:52:23.663Z,101012.34
2022-07-28T12:54:56.393Z,100998.56
2022-07-28T12:57:44.545Z,101003.81
2022-07-28T13:00:15.377Z,101002.94
2022-07-28T13:02:41.978Z,101005.16
2022-07-28T13:05:08.837Z,101000.09
2022-07-28T13:07:35.379Z,100996.03
2022-07-28T13:10:04.068Z,100996.06
2022-07-28T13:12:31.448Z,100998.44
2022-07-28T13:14:59.858Z,100996.97
2022-07-28T13:17:31.780Z,100995.44
2022-07-28T13:20:13.148Z,100994.16
2022-07-28T13:22:40.636Z,101002.75
2022-07-28T13:25:08.062Z,100996.75
2022-07-28T13:27:35.149Z,100991.06
2022-07-28T13:30:02.125Z,100984.97
2022-07-28T13:32:28.764Z,100989.06
2022-07-28T13:34:56.972Z,100989.91
2022-07-28T13:37:23.541Z,100991.38
2022-07-28T13:39:54.419Z,100981.25
2022-07-28T13:42:21.134Z,100976.25
2022-07-28T13:44:50.308Z,100972.94
2022-07-28T13:47:17.291Z,100970.75
2022-07-28T13:49:43.997Z,100964.34
2022-07-28T13:52:17.185Z,100962.25
2022-07-28T13:54:59.891Z,100962.47
2022-07-28T13:57:30.844Z,100954.84
2022-07-28T13:59:57.444Z,100952.38
2022-07-28T14:02:26.011Z,100952.72
2022-07-28T14:04:52.766Z,100947.22
2022-07-28T14:07:20.659Z,100963.44
2022-07-28T14:09:48.067Z,100954.09
2022-07-28T14:12:14.652Z,100941.09
2022-07-28T14:14:47.909Z,100941.25
2022-07-28T14:17:40.108Z,100936.69
2022-07-28T14:20:02.405Z,100940.75
2022-07-28T14:22:28.877Z,100942.50
2022-07-28T14:24:55.326Z,100937.75
2022-07-28T14:27:25.870Z,100926.81
2022-07-28T14:29:55.267Z,100940.56
2022-07-28T14:32:21.769Z,100943.66
2022-07-28T14:34:48.333Z,100931.59
2022-07-28T14:37:15.267Z,100931.34
2022-07-28T14:39:42.041Z,100917.63
2022-07-28T14:42:10.287Z,100925.13
2022-07-28T14:44:37.014Z,100925.22
2022-07-28T14:47:03.849Z,100916.88
2022-07-28T14:49:30.433Z,100912.75
2022-07-28T14:51:57.845Z,100925.38
2022-07-28T14:54:24.395Z,100920.31
2022-07-28T14:56:51.916Z,100905.16
2022-07-28T14:59:18.377Z,100905.97
2022-07-28T15:01:44.985Z,100906.13
2022-07-28T15:04:15.650Z,100919.75
2022-07-28T15:06:42.448Z,100909.97
2022-07-28T15:09:09.425Z,100908.16
2022-07-28T15:11:35.911Z,100902.44
2022-07-28T15:14:02.502Z,100906.66
2022-07-28T15:16:29.014Z,100902.81
2022-07-28T15:18:55.561Z,100907.09
2022-07-28T15:21:22.056Z,100894.47
2022-07-28T15:23:48.596Z,100898.81
2022-07-28T15:26:15.274Z,100899.34
2022-07-28T15:28:41.802Z,100897.09
2022-07-28T15:31:08.467Z,100899.28
2022-07-28T15:33:43.867Z,100894.03
2022-07-28T15:36:15.481Z,100896.31
2022-07-28T15:38:41.998Z,100904.34
2022-07-28T15:41:15.027Z,100894.50
2022-07-28T15:43:41.979Z,100895.31
2022-07-28T15:46:11.006Z,100891.97
2022-07-28T15:48:39.176Z,100885.97
2022-07-28T15:51:05.774Z,100887.63
2022-07-28T15:53:32.360Z,100886.34
2022-07-28T15:55:58.824Z,100897.00
2022-07-28T15:58:28.334Z,100880.25
2022-07-28T16:00:54.858Z,100882.31
2022-07-28T16:03:22.713Z,100882.34
2022-07-28T16:05:50.386Z,100877.03
2022-07-28T16:08:18.548Z,100869.22
2022-07-28T16:10:49.680Z,100873.47
2022-07-28T16:13:22.721Z,100868.28
2022-07-28T16:16:02.467Z,100868.78
2022-07-28T16:18:29.278Z,100869.09
2022-07-28T16:20:55.784Z,100872.53
2022-07-28T16:23:22.269Z,100871.09
2022-07-28T16:25:48.776Z,100871.44
2022-07-28T16:28:15.931Z,100873.72
2022-07-28T16:30:42.420Z,100865.50
2022-07-28T16:33:09.074Z,100863.84
2022-07-28T16:35:35.551Z,100873.31
2022-07-28T16:38:03.633Z,100874.16
2022-07-28T16:40:30.388Z,100868.25
2022-07-28T16:42:59.846Z,100880.59
2022-07-28T16:45:30.800Z,100877.25
2022-07-28T16:47:58.107Z,100876.25
2022-07-28T16:50:24.752Z,100874.22
2022-07-28T16:52:52.334Z,100875.22
2022-07-28T16:55:23.374Z,100873.63
2022-07-28T16:57:50.861Z,100874.06
2022-07-28T17:00:17.645Z,100871.69
2022-07-28T17:02:44.461Z,100864.09
2022-07-28T17:05:12.076Z,100883.38
2022-07-28T17:07:45.155Z,100871.97
2022-07-28T17:10:14.117Z,100867.53
2022-07-28T17:12:40.584Z,100866.38
2022-07-28T17:15:07.741Z,100869.69
2022-07-28T17:17:48.510Z,100869.47
2022-07-28T17:20:16.521Z,100875.91
2022-07-28T17:22:43.206Z,100870.78
2022-07-28T17:25:28.448Z,100878.63
2022-07-28T17:27:56.355Z,100871.16
2022-07-28T17:30:22.836Z,100880.31
2022-07-28T17:32:49.314Z,100880.66
2022-07-28T17:35:34.647Z,100875.81
2022-07-28T17:38:03.595Z,100873.03
2022-07-28T17:40:30.644Z,100879.91
2022-07-28T17:42:57.195Z,100885.66
2022-07-28T17:45:24.405Z,100886.75
2022-07-28T17:47:51.161Z,100891.06
2022-07-28T17:50:17.740Z,100885.59
2022-07-28T17:52:45.166Z,100882.34
2022-07-28T17:55:31.304Z,100883.03
2022-07-28T17:58:10.013Z,100881.16
2022-07-28T18:00:36.636Z,100885.88
2022-07-28T18:03:03.217Z,100886.19
2022-07-28T18:05:40.470Z,100885.53
2022-07-28T18:08:07.794Z,100878.47
2022-07-28T18:10:34.846Z,100884.41
2022-07-28T18:13:01.499Z,100887.16
2022-07-28T18:15:28.710Z,100892.34
2022-07-28T18:17:57.430Z,100888.47
2022-07-28T18:20:24.632Z,100889.47
2022-07-28T18:22:51.268Z,100890.31
2022-07-28T18:25:17.807Z,100895.22
2022-07-28T18:27:44.315Z,100889.13
2022-07-28T18:30:11.342Z,100899.50
2022-07-28T18:32:37.827Z,100897.59
2022-07-28T18:35:04.503Z,100898.06
2022-07-28T18:37:31.125Z,100897.09
2022-07-28T18:39:57.656Z,100896.63
2022-07-28T18:42:24.254Z,100902.03
2022-07-28T18:44:50.907Z,100896.72
2022-07-28T18:47:17.427Z,100895.78
2022-07-28T18:49:43.992Z,100902.38
2022-07-28T18:52:10.465Z,100896.94
2022-07-28T18:54:37.040Z,100896.28
2022-07-28T18:57:03.617Z,100897.75
2022-07-28T18:59:30.132Z,100894.72
2022-07-28T19:01:56.714Z,100898.50
2022-07-28T19:04:23.296Z,100897.00
2022-07-28T19:06:50.404Z,100907.25
2022-07-28T19:09:16.877Z,100897.00
2022-07-28T19:11:46.331Z,100903.78
2022-07-28T19:14:14.675Z,100904.56
2022-07-28T19:16:41.609Z,100905.06
2022-07-28T19:19:08.143Z,100909.88
2022-07-28T19:21:34.954Z,100901.13
2022-07-28T19:24:01.851Z,100903.44
2022-07-28T19:26:29.532Z,100915.19
2022-07-28T19:28:56.177Z,100909.00
2022-07-28T19:31:22.921Z,100911.88
2022-07-28T19:33:49.598Z,100910.44
2022-07-28T19:36:16.168Z,100916.41
2022-07-28T19:38:43.918Z,100916.97
2022-07-28T19:41:12.873Z,100921.53
2022-07-28T19:43:39.375Z,100930.53
2022-07-28T19:46:06.105Z,100928.47
2022-07-28T19:48:34.086Z,100925.81
2022-07-28T19:51:00.902Z,100930.75
2022-07-28T19:53:32.358Z,100936.88
2022-07-28T19:56:01.231Z,100947.06
2022-07-28T19:58:28.377Z,100945.16
2022-07-28T20:00:56.506Z,100945.81
2022-07-28T20:04:03.368Z,100946.22
2022-07-28T20:06:10.033Z,100944.53
2022-07-28T20:08:36.765Z,100951.63
2022-07-28T20:11:03.435Z,100950.78
2022-07-28T20:13:29.949Z,100947.66
2022-07-28T20:15:56.422Z,100961.34
2022-07-28T20:18:22.917Z,100954.47
2022-07-28T20:20:49.556Z,100959.31
2022-07-28T20:23:16.153Z,100954.41
2022-07-28T20:25:45.247Z,100963.91
2022-07-28T20:28:12.343Z,100961.03
2022-07-28T20:30:40.114Z,100954.19
2022-07-28T20:33:07.918Z,100948.88
2022-07-28T20:35:34.517Z,100950.56
2022-07-28T20:38:01.902Z,100952.53
2022-07-28T20:40:28.396Z,100956.38
2022-07-28T20:42:55.044Z,100954.69
2022-07-28T20:45:22.855Z,100958.34
2022-07-28T20:47:49.326Z,100964.09
2022-07-28T20:50:16.032Z,100964.94
2022-07-28T20:52:42.561Z,100963.03
2022-07-28T20:55:11.229Z,100946.59
2022-07-28T20:57:38.432Z,100959.06
2022-07-28T21:00:06.096Z,100965.72
2022-07-28T21:02:32.591Z,100966.38
2022-07-28T21:04:59.061Z,100962.69
2022-07-28T21:08:04.898Z,100957.50
2022-07-28T21:10:12.078Z,100969.25
2022-07-28T21:12:38.800Z,100968.41
2022-07-28T21:15:06.438Z,100972.75
2022-07-28T21:17:33.157Z,100973.34
2022-07-28T21:20:02.310Z,100986.19
2022-07-28T21:22:29.049Z,100985.44
2022-07-28T21:24:55.948Z,100991.78
2022-07-28T21:27:23.558Z,100994.22
2022-07-28T21:32:17.095Z,101000.19
2022-07-28T21:34:43.558Z,101000.44
2022-07-28T21:37:11.527Z,100995.03
2022-07-28T21:39:41.671Z,101005.91
2022-07-28T21:42:09.353Z,101009.06
2022-07-28T21:44:37.298Z,101005.81
2022-07-28T21:47:04.421Z,101008.97
2022-07-28T21:49:31.357Z,101018.22
2022-07-28T21:51:58.136Z,101015.41
2022-07-28T21:54:24.716Z,101013.91
2022-07-28T21:56:51.155Z,101029.78
2022-07-28T21:59:17.614Z,101003.41
2022-07-28T22:01:44.117Z,101021.09
2022-07-28T22:04:10.668Z,101018.56
2022-07-28T22:06:37.108Z,101019.41
2022-07-28T22:09:03.749Z,101019.16
2022-07-28T22:11:30.606Z,101022.84
2022-07-28T22:13:57.218Z,101032.31
2022-07-28T22:16:23.790Z,101031.84
2022-07-28T22:18:50.318Z,101028.38
2022-07-28T22:21:16.859Z,101033.94
2022-07-28T22:23:43.346Z,101030.47
2022-07-28T22:26:09.785Z,101039.97
2022-07-28T22:28:36.302Z,101029.50
2022-07-28T22:31:08.880Z,101042.41
2022-07-28T22:33:39.906Z,101040.41
2022-07-28T22:36:08.636Z,101036.44
2022-07-28T22:38:35.914Z,101046.81
2022-07-28T22:41:02.436Z,101040.00
2022-07-28T22:43:28.961Z,101050.44
2022-07-28T22:45:55.434Z,101053.47
2022-07-28T22:48:21.999Z,101054.59
2022-07-28T22:50:48.458Z,101046.94
2022-07-28T22:53:14.954Z,101048.34
2022-07-28T22:55:41.463Z,101050.44
2022-07-28T22:58:07.961Z,101049.84
2022-07-28T23:00:36.503Z,101058.53
2022-07-28T23:03:04.170Z,101057.84
2022-07-28T23:05:30.863Z,101061.66
2022-07-28T23:07:58.925Z,101059.94
2022-07-28T23:10:26.394Z,101064.25
2022-07-28T23:12:56.086Z,101064.19
2022-07-28T23:15:24.994Z,101068.38
2022-07-28T23:18:06.821Z,101062.75
2022-07-28T23:20:33.294Z,101071.72
2022-07-28T23:22:59.760Z,101061.09
2022-07-28T23:25:26.205Z,101058.34
2022-07-28T23:27:52.692Z,101055.47
2022-07-28T23:30:19.309Z,101047.91
2022-07-28T23:32:45.785Z,101056.47
2022-07-28T23:35:12.297Z,101053.00
2022-07-28T23:37:38.778Z,101052.41
2022-07-28T23:40:05.827Z,101059.25
2022-07-28T23:42:32.330Z,101055.84
2022-07-28T23:44:58.830Z,101060.09
2022-07-28T23:47:25.340Z,101062.81
2022-07-28T23:49:51.811Z,101055.97
2022-07-28T23:52:18.439Z,101050.25
2022-07-28T23:54:44.932Z,101054.50
2022-07-28T23:57:11.482Z,101048.81
2022-07-28T23:59:37.942Z,101043.97
